createdAt,value
2017-04-24T00:00:47.533Z,1011.8
2017-04-24T00:01:49.333Z,1011.8
2017-04-24T00:02:51.552Z,1011.8
2017-04-24T00:03:53.751Z,1011.8
2017-04-24T00:04:55.593Z,1011.8
2017-04-24T00:05:57.428Z,1011.8
2017-04-24T00:06:59.236Z,1011.8
2017-04-24T00:08:01.041Z,1011.8
2017-04-24T00:09:02.841Z,1011.8
2017-04-24T00:10:04.636Z,1011.8
2017-04-24T00:11:06.435Z,1011.8
2017-04-24T00:12:08.229Z,1011.8
2017-04-24T00:13:10.085Z,1011.8
2017-04-24T00:14:11.944Z,1011.7
2017-04-24T00:15:13.730Z,1011.8
2017-04-24T00:16:15.552Z,1011.7
2017-04-24T00:17:17.379Z,1011.7
2017-04-24T00:18:19.225Z,1011.7
2017-04-24T00:19:21.134Z,1011.7
2017-04-24T00:20:22.964Z,1011.7
2017-04-24T00:21:24.768Z,1011.7
2017-04-24T00:22:26.562Z,1011.7
2017-04-24T00:23:28.437Z,1011.7
2017-04-24T00:24:30.234Z,1011.6
2017-04-24T00:25:32.232Z,1011.6
2017-04-24T00:26:34.092Z,1011.6
2017-04-24T00:27:36.228Z,1011.6
2017-04-24T00:28:38.142Z,1011.5
2017-04-24T00:29:40.308Z,1011.5
2017-04-24T00:30:42.112Z,1011.5
2017-04-24T00:31:43.949Z,1011.5
2017-04-24T00:32:45.742Z,1011.5
2017-04-24T00:33:47.572Z,1011.5
2017-04-24T00:34:49.365Z,1011.4
2017-04-24T00:35:51.164Z,1011.4
2017-04-24T00:36:53.005Z,1011.4
2017-04-24T00:37:55.199Z,1011.4
2017-04-24T00:38:57.094Z,1011.4
2017-04-24T00:39:59.252Z,1011.4
2017-04-24T00:41:01.248Z,1011.4
2017-04-24T00:42:03.061Z,1011.4
2017-04-24T00:43:04.862Z,1011.3
2017-04-24T00:44:06.658Z,1011.3
2017-04-24T00:45:08.454Z,1011.3
2017-04-24T00:46:10.589Z,1011.3
2017-04-24T00:47:12.415Z,1011.3
2017-04-24T00:48:14.223Z,1011.3
2017-04-24T00:49:16.028Z,1011.3
2017-04-24T00:50:17.882Z,1011.3
2017-04-24T00:51:19.765Z,1011.3
2017-04-24T00:52:21.566Z,1011.3
2017-04-24T00:53:23.901Z,1011.3
2017-04-24T00:54:26.622Z,1011.3
2017-04-24T00:55:28.775Z,1011.3
2017-04-24T00:56:30.581Z,1011.3
2017-04-24T00:57:32.379Z,1011.3
2017-04-24T00:58:34.169Z,1011.3
2017-04-24T00:59:36.308Z,1011.3
2017-04-24T01:00:38.156Z,1011.3
2017-04-24T01:01:40.308Z,1011.3
2017-04-24T01:02:42.141Z,1011.3
2017-04-24T01:03:43.952Z,1011.2
2017-04-24T01:04:45.807Z,1011.2
2017-04-24T01:05:47.707Z,1011.2
2017-04-24T01:06:49.891Z,1011.2
2017-04-24T01:07:51.729Z,1011.2
2017-04-24T01:08:53.521Z,1011.2
2017-04-24T01:09:55.319Z,1011.3
2017-04-24T01:10:57.448Z,1011.3
2017-04-24T01:11:59.268Z,1011.2
2017-04-24T01:13:01.423Z,1011.2
2017-04-24T01:14:03.263Z,1011.1
2017-04-24T01:15:05.066Z,1011.1
2017-04-24T01:16:06.868Z,1011.1
2017-04-24T01:17:08.680Z,1011.1
2017-04-24T01:18:10.474Z,1011.1
2017-04-24T01:19:12.272Z,1011.1
2017-04-24T01:20:14.068Z,1011.1
2017-04-24T01:21:15.870Z,1011.1
2017-04-24T01:22:17.958Z,1011
2017-04-24T01:23:19.954Z,1011.1
2017-04-24T01:24:22.770Z,1011
2017-04-24T01:25:24.625Z,1011.1
2017-04-24T01:26:26.431Z,1011
2017-04-24T01:27:28.228Z,1011
2017-04-24T01:28:30.373Z,1011
2017-04-24T01:29:33.114Z,1011
2017-04-24T01:30:35.111Z,1011
2017-04-24T01:31:36.962Z,1011
2017-04-24T01:32:38.804Z,1011
2017-04-24T01:33:40.946Z,1011
2017-04-24T01:34:42.786Z,1010.9
2017-04-24T01:35:44.601Z,1010.9
2017-04-24T01:36:46.398Z,1010.9
2017-04-24T01:37:48.196Z,1010.9
2017-04-24T01:38:49.992Z,1010.9
2017-04-24T01:39:51.784Z,1010.9
2017-04-24T01:40:53.628Z,1010.9
2017-04-24T01:41:55.520Z,1010.9
2017-04-24T01:42:57.322Z,1010.9
2017-04-24T01:44:00.024Z,1010.9
2017-04-24T01:45:01.823Z,1010.9
2017-04-24T01:46:03.666Z,1010.9
2017-04-24T01:47:05.536Z,1010.9
2017-04-24T01:48:07.667Z,1010.8
2017-04-24T01:49:09.532Z,1010.8
2017-04-24T01:50:11.331Z,1010.8
2017-04-24T01:51:13.484Z,1010.8
2017-04-24T01:52:15.281Z,1010.8
2017-04-24T01:53:17.093Z,1010.8
2017-04-24T01:54:18.886Z,1010.7
2017-04-24T01:55:20.686Z,1010.7
2017-04-24T01:56:22.485Z,1010.8
2017-04-24T01:57:24.278Z,1010.8
2017-04-24T01:58:26.078Z,1010.7
2017-04-24T01:59:27.873Z,1010.7
2017-04-24T02:00:29.666Z,1010.7
2017-04-24T02:01:31.819Z,1010.6
2017-04-24T02:02:33.641Z,1010.6
2017-04-24T02:03:35.642Z,1010.7
2017-04-24T02:04:37.445Z,1010.7
2017-04-24T02:05:39.248Z,1010.6
2017-04-24T02:06:41.035Z,1010.6
2017-04-24T02:07:42.834Z,1010.5
2017-04-24T02:08:44.634Z,1010.5
2017-04-24T02:09:46.765Z,1010.5
2017-04-24T02:10:48.607Z,1010.4
2017-04-24T02:11:50.416Z,1010.4
2017-04-24T02:12:52.567Z,1010.5
2017-04-24T02:13:54.391Z,1010.5
2017-04-24T02:14:56.187Z,1010.4
2017-04-24T02:15:58.654Z,1010.4
2017-04-24T02:17:00.498Z,1010.3
2017-04-24T02:18:02.346Z,1010.3
2017-04-24T02:19:04.146Z,1010.3
2017-04-24T02:20:05.953Z,1010.4
2017-04-24T02:21:08.096Z,1010.4
2017-04-24T02:22:09.926Z,1010.3
2017-04-24T02:23:11.947Z,1010.3
2017-04-24T02:24:13.743Z,1010.3
2017-04-24T02:25:15.900Z,1010.3
2017-04-24T02:26:17.724Z,1010.3
2017-04-24T02:27:19.534Z,1010.2
2017-04-24T02:28:21.338Z,1010.3
2017-04-24T02:29:23.164Z,1010.3
2017-04-24T02:30:25.316Z,1010.2
2017-04-24T02:31:27.468Z,1010.1
2017-04-24T02:32:29.296Z,1010.1
2017-04-24T02:33:31.091Z,1010.1
2017-04-24T02:34:32.887Z,1010.1
2017-04-24T02:35:35.015Z,1010.1
2017-04-24T02:36:36.879Z,1010.1
2017-04-24T02:37:38.679Z,1010.1
2017-04-24T02:38:40.814Z,1010.2
2017-04-24T02:39:42.995Z,1010.1
2017-04-24T02:40:45.226Z,1010.1
2017-04-24T02:41:47.354Z,1010.1
2017-04-24T02:42:49.738Z,1010.1
2017-04-24T02:43:51.923Z,1010.1
2017-04-24T02:44:54.279Z,1010.1
2017-04-24T02:45:56.077Z,1010.1
2017-04-24T02:46:57.878Z,1010.1
2017-04-24T02:47:59.714Z,1010.1
2017-04-24T02:49:01.872Z,1010
2017-04-24T02:50:03.880Z,1010.1
2017-04-24T02:51:05.733Z,1010.1
2017-04-24T02:52:07.883Z,1010.1
2017-04-24T02:53:25.296Z,1010
2017-04-24T02:54:27.207Z,1010
2017-04-24T02:55:29.076Z,1010
2017-04-24T02:56:30.866Z,1010
2017-04-24T02:57:32.703Z,1010
2017-04-24T02:58:34.516Z,1010
2017-04-24T02:59:36.647Z,1009.9
2017-04-24T03:00:38.494Z,1009.9
2017-04-24T03:01:40.302Z,1009.8
2017-04-24T03:02:42.106Z,1009.8
2017-04-24T03:03:43.910Z,1009.8
2017-04-24T03:04:45.703Z,1009.7
2017-04-24T03:05:47.502Z,1009.8
2017-04-24T03:06:49.292Z,1009.7
2017-04-24T03:07:51.108Z,1009.8
2017-04-24T03:08:53.582Z,1009.7
2017-04-24T03:09:55.445Z,1009.7
2017-04-24T03:10:57.257Z,1009.7
2017-04-24T03:11:59.057Z,1009.7
2017-04-24T03:13:00.857Z,1009.7
2017-04-24T03:14:02.648Z,1009.7
2017-04-24T03:15:04.446Z,1009.7
2017-04-24T03:16:06.243Z,1009.7
2017-04-24T03:17:08.087Z,1009.6
2017-04-24T03:18:10.175Z,1009.6
2017-04-24T03:19:12.029Z,1009.6
2017-04-24T03:20:14.198Z,1009.6
2017-04-24T03:21:16.331Z,1009.6
2017-04-24T03:22:18.204Z,1009.5
2017-04-24T03:23:20.004Z,1009.5
2017-04-24T03:24:22.227Z,1009.5
2017-04-24T03:25:24.717Z,1009.5
2017-04-24T03:26:26.544Z,1009.4
2017-04-24T03:27:28.351Z,1009.5
2017-04-24T03:28:30.502Z,1009.4
2017-04-24T03:29:32.337Z,1009.4
2017-04-24T03:30:34.140Z,1009.4
2017-04-24T03:31:35.944Z,1009.4
2017-04-24T03:32:37.742Z,1009.4
2017-04-24T03:33:40.286Z,1009.4
2017-04-24T03:34:42.150Z,1009.4
2017-04-24T03:35:43.946Z,1009.4
2017-04-24T03:36:45.745Z,1009.4
2017-04-24T03:37:47.891Z,1009.3
2017-04-24T03:38:50.437Z,1009.3
2017-04-24T03:39:52.281Z,1009.3
2017-04-24T03:40:54.103Z,1009.3
2017-04-24T03:41:55.908Z,1009.3
2017-04-24T03:42:57.707Z,1009.2
2017-04-24T03:43:59.505Z,1009.3
2017-04-24T03:45:01.303Z,1009.3
2017-04-24T03:46:03.107Z,1009.2
2017-04-24T03:47:04.908Z,1009.2
2017-04-24T03:48:06.700Z,1009.2
2017-04-24T03:49:08.523Z,1009.2
2017-04-24T03:50:10.325Z,1009.1
2017-04-24T03:51:12.132Z,1009.2
2017-04-24T03:52:14.263Z,1009.1
2017-04-24T03:53:16.058Z,1009
2017-04-24T03:54:17.902Z,1009.1
2017-04-24T03:55:19.926Z,1009.1
2017-04-24T03:56:21.933Z,1009
2017-04-24T03:57:23.795Z,1009
2017-04-24T03:58:25.606Z,1009
2017-04-24T03:59:27.966Z,1008.9
2017-04-24T04:00:30.647Z,1009
2017-04-24T04:01:32.439Z,1009
2017-04-24T04:02:34.269Z,1008.9
2017-04-24T04:03:36.063Z,1009
2017-04-24T04:04:38.196Z,1009
2017-04-24T04:05:40.022Z,1009
2017-04-24T04:06:41.815Z,1008.9
2017-04-24T04:07:43.611Z,1008.9
2017-04-24T04:08:45.406Z,1009
2017-04-24T04:09:47.537Z,1008.9
2017-04-24T04:10:49.336Z,1008.9
2017-04-24T04:11:51.142Z,1008.9
2017-04-24T04:12:52.955Z,1008.9
2017-04-24T04:13:55.083Z,1008.9
2017-04-24T04:14:58.439Z,1008.8
2017-04-24T04:16:00.295Z,1008.8
2017-04-24T04:17:02.422Z,1008.9
2017-04-24T04:18:04.289Z,1008.8
2017-04-24T04:19:06.284Z,1008.9
2017-04-24T04:20:08.106Z,1008.8
2017-04-24T04:21:09.948Z,1008.8
2017-04-24T04:22:12.040Z,1008.8
2017-04-24T04:23:14.835Z,1008.8
2017-04-24T04:24:17.032Z,1008.8
2017-04-24T04:25:19.369Z,1008.8
2017-04-24T04:26:21.223Z,1008.8
2017-04-24T04:27:23.424Z,1008.8
2017-04-24T04:28:25.222Z,1008.7
2017-04-24T04:29:27.044Z,1008.8
2017-04-24T04:30:28.843Z,1008.8
2017-04-24T04:31:30.953Z,1008.8
2017-04-24T04:32:32.800Z,1008.8
2017-04-24T04:33:34.643Z,1008.8
2017-04-24T04:34:36.442Z,1008.8
2017-04-24T04:35:38.615Z,1008.7
2017-04-24T04:36:55.797Z,1008.7
2017-04-24T04:37:57.936Z,1008.7
2017-04-24T04:39:00.092Z,1008.6
2017-04-24T04:40:01.883Z,1008.6
2017-04-24T04:41:03.754Z,1008.6
2017-04-24T04:42:06.092Z,1008.6
2017-04-24T04:43:08.596Z,1008.5
2017-04-24T04:44:10.937Z,1008.5
2017-04-24T04:45:12.757Z,1008.5
2017-04-24T04:46:14.577Z,1008.5
2017-04-24T04:47:16.374Z,1008.5
2017-04-24T04:48:18.529Z,1008.5
2017-04-24T04:49:20.707Z,1008.5
2017-04-24T04:50:22.581Z,1008.4
2017-04-24T04:51:24.379Z,1008.4
2017-04-24T04:52:26.198Z,1008.4
2017-04-24T04:53:27.995Z,1008.5
2017-04-24T04:54:29.791Z,1008.4
2017-04-24T04:55:31.875Z,1008.4
2017-04-24T04:56:33.715Z,1008.4
2017-04-24T04:57:35.550Z,1008.3
2017-04-24T04:58:37.711Z,1008.3
2017-04-24T04:59:39.514Z,1008.3
2017-04-24T05:00:41.312Z,1008.2
2017-04-24T05:01:43.102Z,1008.3
2017-04-24T05:02:45.238Z,1008.2
2017-04-24T05:03:47.454Z,1008.3
2017-04-24T05:04:49.639Z,1008.2
2017-04-24T05:05:51.473Z,1008.2
2017-04-24T05:06:53.274Z,1008.2
2017-04-24T05:07:55.075Z,1008.2
2017-04-24T05:08:56.874Z,1008.2
2017-04-24T05:09:58.667Z,1008.2
2017-04-24T05:11:00.754Z,1008.2
2017-04-24T05:12:02.748Z,1008.2
2017-04-24T05:13:04.666Z,1008.2
2017-04-24T05:14:06.465Z,1008.2
2017-04-24T05:15:08.602Z,1008.1
2017-04-24T05:16:10.469Z,1008.2
2017-04-24T05:17:12.266Z,1008.1
2017-04-24T05:18:14.069Z,1008.1
2017-04-24T05:19:16.208Z,1008.1
2017-04-24T05:20:18.357Z,1008.1
2017-04-24T05:21:20.150Z,1008.1
2017-04-24T05:22:21.962Z,1008.1
2017-04-24T05:23:23.956Z,1008.1
2017-04-24T05:24:25.960Z,1008.1
2017-04-24T05:25:27.956Z,1008
2017-04-24T05:26:29.757Z,1008
2017-04-24T05:27:31.565Z,1008
2017-04-24T05:28:33.367Z,1007.9
2017-04-24T05:29:35.699Z,1007.9
2017-04-24T05:30:37.545Z,1007.9
2017-04-24T05:31:39.346Z,1008
2017-04-24T05:32:41.150Z,1008
2017-04-24T05:33:42.944Z,1008
2017-04-24T05:34:45.077Z,1007.9
2017-04-24T05:35:46.959Z,1008
2017-04-24T05:36:48.797Z,1007.9
2017-04-24T05:37:50.600Z,1008
2017-04-24T05:38:52.460Z,1007.9
2017-04-24T05:39:54.355Z,1007.9
2017-04-24T05:40:56.155Z,1007.9
2017-04-24T05:41:57.975Z,1007.8
2017-04-24T05:42:59.974Z,1007.9
2017-04-24T05:44:02.449Z,1007.8
2017-04-24T05:45:04.265Z,1007.8
2017-04-24T05:46:06.069Z,1007.8
2017-04-24T05:47:07.868Z,1007.7
2017-04-24T05:48:10.337Z,1007.7
2017-04-24T05:49:12.340Z,1007.7
2017-04-24T05:50:14.202Z,1007.8
2017-04-24T05:51:16.748Z,1007.7
2017-04-24T05:52:18.593Z,1007.7
2017-04-24T05:53:20.407Z,1007.7
2017-04-24T05:54:22.227Z,1007.7
2017-04-24T05:55:24.021Z,1007.7
2017-04-24T05:56:25.817Z,1007.7
2017-04-24T05:57:27.892Z,1007.7
2017-04-24T05:58:29.747Z,1007.7
2017-04-24T05:59:31.558Z,1007.7
2017-04-24T06:00:33.354Z,1007.6
2017-04-24T06:01:35.179Z,1007.6
2017-04-24T06:02:36.983Z,1007.6
2017-04-24T06:03:38.799Z,1007.5
2017-04-24T06:04:40.594Z,1007.6
2017-04-24T06:05:42.404Z,1007.6
2017-04-24T06:06:44.253Z,1007.5
2017-04-24T06:07:46.100Z,1007.5
2017-04-24T06:08:47.900Z,1007.5
2017-04-24T06:09:50.272Z,1007.5
2017-04-24T06:10:52.110Z,1007.5
2017-04-24T06:11:53.906Z,1007.4
2017-04-24T06:12:55.724Z,1007.4
2017-04-24T06:13:57.510Z,1007.4
2017-04-24T06:14:59.313Z,1007.4
2017-04-24T06:16:01.113Z,1007.3
2017-04-24T06:17:02.909Z,1007.4
2017-04-24T06:18:04.725Z,1007.3
2017-04-24T06:19:06.518Z,1007.3
2017-04-24T06:20:08.668Z,1007.3
2017-04-24T06:21:10.466Z,1007.3
2017-04-24T06:22:12.598Z,1007.3
2017-04-24T06:23:14.416Z,1007.2
2017-04-24T06:24:16.247Z,1007.2
2017-04-24T06:25:18.110Z,1007.2
2017-04-24T06:26:19.971Z,1007.3
2017-04-24T06:27:21.762Z,1007.2
2017-04-24T06:28:23.622Z,1007.2
2017-04-24T06:29:26.170Z,1007.2
2017-04-24T06:30:28.604Z,1007.2
2017-04-24T06:31:31.257Z,1007.2
2017-04-24T06:32:34.232Z,1007.2
2017-04-24T06:33:36.359Z,1007.2
2017-04-24T06:34:38.957Z,1007.1
2017-04-24T06:35:41.794Z,1007.2
2017-04-24T06:36:43.970Z,1007.1
2017-04-24T06:37:47.044Z,1007.1
2017-04-24T06:38:49.680Z,1007.1
2017-04-24T06:39:52.649Z,1007.1
2017-04-24T06:40:55.369Z,1007.1
2017-04-24T06:41:57.567Z,1007.1
2017-04-24T06:42:59.366Z,1007
2017-04-24T06:44:01.170Z,1007
2017-04-24T06:45:02.973Z,1007.1
2017-04-24T06:46:04.808Z,1007
2017-04-24T06:47:06.602Z,1006.9
2017-04-24T06:48:08.610Z,1006.9
2017-04-24T06:49:10.447Z,1006.8
2017-04-24T06:50:12.642Z,1006.8
2017-04-24T06:51:15.218Z,1006.8
2017-04-24T06:52:17.065Z,1006.8
2017-04-24T06:53:18.966Z,1006.7
2017-04-24T06:54:21.109Z,1006.6
2017-04-24T06:55:22.935Z,1006.7
2017-04-24T06:56:25.073Z,1006.7
2017-04-24T06:57:27.172Z,1006.7
2017-04-24T06:58:29.178Z,1006.6
2017-04-24T06:59:31.032Z,1006.6
2017-04-24T07:00:32.850Z,1006.7
2017-04-24T07:01:34.650Z,1006.6
2017-04-24T07:02:36.451Z,1006.6
2017-04-24T07:03:38.254Z,1006.6
2017-04-24T07:04:40.395Z,1006.6
2017-04-24T07:05:42.220Z,1006.6
2017-04-24T07:06:44.020Z,1006.6
2017-04-24T07:07:46.117Z,1006.4
2017-04-24T07:08:48.325Z,1006.4
2017-04-24T07:09:50.333Z,1006.4
2017-04-24T07:10:52.179Z,1006.3
2017-04-24T07:11:54.208Z,1006.3
2017-04-24T07:12:56.009Z,1006.3
2017-04-24T07:13:57.851Z,1006.2
2017-04-24T07:14:59.989Z,1006.3
2017-04-24T07:16:02.078Z,1006.3
2017-04-24T07:17:04.072Z,1006.2
2017-04-24T07:18:05.935Z,1006.2
2017-04-24T07:19:07.805Z,1006.1
2017-04-24T07:20:09.687Z,1006.2
2017-04-24T07:21:11.482Z,1006.1
2017-04-24T07:22:13.325Z,1006.1
2017-04-24T07:23:15.325Z,1006.1
2017-04-24T07:24:17.479Z,1006.1
2017-04-24T07:25:19.711Z,1006
2017-04-24T07:26:21.514Z,1005.9
2017-04-24T07:27:23.313Z,1005.8
2017-04-24T07:28:25.114Z,1005.9
2017-04-24T07:29:26.912Z,1005.8
2017-04-24T07:30:28.720Z,1005.8
2017-04-24T07:31:30.860Z,1005.8
2017-04-24T07:32:32.697Z,1005.7
2017-04-24T07:33:34.489Z,1005.7
2017-04-24T07:34:36.291Z,1005.7
2017-04-24T07:35:38.084Z,1005.6
2017-04-24T07:36:39.884Z,1005.7
2017-04-24T07:37:42.017Z,1005.6
2017-04-24T07:38:43.855Z,1005.6
2017-04-24T07:39:45.720Z,1005.6
2017-04-24T07:40:47.606Z,1005.5
2017-04-24T07:41:49.798Z,1005.6
2017-04-24T07:42:52.134Z,1005.7
2017-04-24T07:43:53.976Z,1005.5
2017-04-24T07:44:55.833Z,1005.5
2017-04-24T07:45:57.634Z,1005.5
2017-04-24T07:46:59.434Z,1005.5
2017-04-24T07:48:01.332Z,1005.5
2017-04-24T07:49:03.178Z,1005.3
2017-04-24T07:50:04.999Z,1005.4
2017-04-24T07:51:06.802Z,1005.4
2017-04-24T07:52:08.896Z,1005.3
2017-04-24T07:53:10.802Z,1005.3
2017-04-24T07:54:12.636Z,1005.3
2017-04-24T07:55:14.439Z,1005.3
2017-04-24T07:56:16.242Z,1005.3
2017-04-24T07:57:18.126Z,1005.3
2017-04-24T07:58:19.945Z,1005.3
2017-04-24T07:59:21.752Z,1005.3
2017-04-24T08:00:23.848Z,1005.3
2017-04-24T08:01:25.850Z,1005.3
2017-04-24T08:02:27.708Z,1005.2
2017-04-24T08:03:29.538Z,1005.3
2017-04-24T08:04:31.335Z,1005.2
2017-04-24T08:05:33.527Z,1005.2
2017-04-24T08:06:35.331Z,1005.2
2017-04-24T08:07:37.670Z,1005.1
2017-04-24T08:08:39.515Z,1005.1
2017-04-24T08:09:41.311Z,1005.1
2017-04-24T08:10:43.117Z,1005
2017-04-24T08:11:44.915Z,1005.1
2017-04-24T08:12:46.717Z,1005
2017-04-24T08:13:48.519Z,1005
2017-04-24T08:14:50.326Z,1005
2017-04-24T08:15:52.127Z,1005.1
2017-04-24T08:16:53.925Z,1005.1
2017-04-24T08:17:55.729Z,1005
2017-04-24T08:18:57.579Z,1005
2017-04-24T08:19:59.437Z,1004.9
2017-04-24T08:21:01.234Z,1005
2017-04-24T08:22:03.043Z,1005
2017-04-24T08:23:05.177Z,1005
2017-04-24T08:24:07.004Z,1005
2017-04-24T08:25:08.812Z,1005
2017-04-24T08:26:10.612Z,1005
2017-04-24T08:27:12.419Z,1004.9
2017-04-24T08:28:14.217Z,1004.9
2017-04-24T08:29:16.015Z,1005
2017-04-24T08:30:17.817Z,1005
2017-04-24T08:31:19.621Z,1004.9
2017-04-24T08:32:21.781Z,1004.9
2017-04-24T08:33:23.951Z,1004.9
2017-04-24T08:34:25.766Z,1004.9
2017-04-24T08:35:27.567Z,1004.8
2017-04-24T08:36:29.399Z,1004.8
2017-04-24T08:37:31.199Z,1004.7
2017-04-24T08:38:32.995Z,1004.7
2017-04-24T08:39:35.141Z,1004.8
2017-04-24T08:40:37.339Z,1004.7
2017-04-24T08:41:39.142Z,1004.7
2017-04-24T08:42:40.940Z,1004.6
2017-04-24T08:43:42.747Z,1004.7
2017-04-24T08:44:44.880Z,1004.7
2017-04-24T08:45:46.719Z,1004.7
2017-04-24T08:46:48.532Z,1004.6
2017-04-24T08:47:50.338Z,1004.7
2017-04-24T08:48:52.144Z,1004.5
2017-04-24T08:49:53.948Z,1004.6
2017-04-24T08:50:56.083Z,1004.5
2017-04-24T08:51:57.882Z,1004.6
2017-04-24T08:52:59.688Z,1004.4
2017-04-24T08:54:01.829Z,1004.5
2017-04-24T08:55:03.646Z,1004.5
2017-04-24T08:56:05.457Z,1004.4
2017-04-24T08:57:07.262Z,1004.4
2017-04-24T08:58:09.059Z,1004.4
2017-04-24T08:59:10.860Z,1004.3
2017-04-24T09:00:12.660Z,1004.4
2017-04-24T09:01:14.460Z,1004.3
2017-04-24T09:02:16.477Z,1004.3
2017-04-24T09:03:18.677Z,1004.3
2017-04-24T09:04:20.826Z,1004.2
2017-04-24T09:05:22.983Z,1004.2
2017-04-24T09:06:25.164Z,1004.5
2017-04-24T09:07:26.970Z,1004.2
2017-04-24T09:08:28.773Z,1004.3
2017-04-24T09:09:30.568Z,1004.4
2017-04-24T09:10:32.372Z,1004.1
2017-04-24T09:11:34.178Z,1004.2
2017-04-24T09:12:36.523Z,1004.2
2017-04-24T09:13:38.331Z,1004.2
2017-04-24T09:14:40.585Z,1004.1
2017-04-24T09:15:42.387Z,1004.4
2017-04-24T09:16:44.241Z,1004.2
2017-04-24T09:17:46.113Z,1004.2
2017-04-24T09:18:47.919Z,1004.2
2017-04-24T09:19:50.112Z,1004.1
2017-04-24T09:20:51.915Z,1004.1
2017-04-24T09:21:54.070Z,1004.1
2017-04-24T09:22:55.877Z,1004
2017-04-24T09:23:57.674Z,1004
2017-04-24T09:24:59.503Z,1003.9
2017-04-24T09:26:01.301Z,1004.1
2017-04-24T09:27:03.112Z,1003.9
2017-04-24T09:28:04.915Z,1003.9
2017-04-24T09:29:06.720Z,1004
2017-04-24T09:30:08.865Z,1004
2017-04-24T09:31:10.673Z,1004.1
2017-04-24T09:32:12.505Z,1003.9
2017-04-24T09:33:14.315Z,1004
2017-04-24T09:34:16.177Z,1004.1
2017-04-24T09:35:18.030Z,1003.9
2017-04-24T09:36:19.833Z,1003.9
2017-04-24T09:37:22.156Z,1003.8
2017-04-24T09:38:24.011Z,1003.9
2017-04-24T09:39:25.821Z,1003.8
2017-04-24T09:40:27.980Z,1003.8
2017-04-24T09:41:30.319Z,1003.9
2017-04-24T09:42:32.171Z,1004
2017-04-24T09:43:34.178Z,1003.8
2017-04-24T09:44:36.353Z,1003.8
2017-04-24T09:45:38.177Z,1003.8
2017-04-24T09:46:40.035Z,1003.8
2017-04-24T09:47:41.886Z,1003.7
2017-04-24T09:48:44.067Z,1003.8
2017-04-24T09:49:45.927Z,1003.8
2017-04-24T09:50:47.727Z,1003.6
2017-04-24T09:51:49.530Z,1003.7
2017-04-24T09:52:51.334Z,1003.7
2017-04-24T09:53:53.134Z,1003.7
2017-04-24T09:54:55.241Z,1003.7
2017-04-24T09:55:57.243Z,1003.7
2017-04-24T09:56:59.109Z,1003.7
2017-04-24T09:58:01.280Z,1003.6
2017-04-24T09:59:03.113Z,1003.8
2017-04-24T10:00:05.278Z,1003.7
2017-04-24T10:01:07.093Z,1003.7
2017-04-24T10:02:08.940Z,1003.8
2017-04-24T10:03:11.225Z,1003.7
2017-04-24T10:04:13.070Z,1003.6
2017-04-24T10:05:14.913Z,1003.6
2017-04-24T10:06:16.714Z,1003.6
2017-04-24T10:07:18.521Z,1003.6
2017-04-24T10:08:20.329Z,1003.6
2017-04-24T10:09:22.475Z,1003.6
2017-04-24T10:10:24.320Z,1003.7
2017-04-24T10:11:26.125Z,1003.5
2017-04-24T10:12:28.046Z,1003.5
2017-04-24T10:13:29.897Z,1003.5
2017-04-24T10:14:31.747Z,1003.4
2017-04-24T10:15:33.545Z,1003.3
2017-04-24T10:16:35.397Z,1003.4
2017-04-24T10:17:37.206Z,1003.6
2017-04-24T10:18:39.006Z,1003.3
2017-04-24T10:19:41.097Z,1003.4
2017-04-24T10:20:42.957Z,1003.5
2017-04-24T10:21:44.779Z,1003.3
2017-04-24T10:22:46.582Z,1003.4
2017-04-24T10:23:48.821Z,1003.4
2017-04-24T10:24:50.965Z,1003.3
2017-04-24T10:25:53.063Z,1003.4
2017-04-24T10:26:54.933Z,1003.3
2017-04-24T10:27:56.782Z,1003.3
2017-04-24T10:28:58.589Z,1003.3
2017-04-24T10:30:00.745Z,1003.3
2017-04-24T10:31:02.547Z,1003.4
2017-04-24T10:32:04.348Z,1003.3
2017-04-24T10:33:06.156Z,1003.3
2017-04-24T10:34:07.958Z,1003.2
2017-04-24T10:35:09.766Z,1003.3
2017-04-24T10:36:11.902Z,1003.2
2017-04-24T10:37:13.737Z,1003.1
2017-04-24T10:38:15.536Z,1003.2
2017-04-24T10:39:17.350Z,1003.3
2017-04-24T10:40:19.494Z,1003.1
2017-04-24T10:41:21.297Z,1003.1
2017-04-24T10:42:23.109Z,1003.2
2017-04-24T10:43:25.254Z,1003
2017-04-24T10:44:27.076Z,1002.9
2017-04-24T10:45:29.225Z,1003
2017-04-24T10:46:31.048Z,1002.8
2017-04-24T10:47:32.865Z,1002.8
2017-04-24T10:48:34.682Z,1002.8
2017-04-24T10:49:36.500Z,1002.8
2017-04-24T10:50:38.307Z,1002.8
2017-04-24T10:51:40.116Z,1002.7
2017-04-24T10:52:42.267Z,1002.8
2017-04-24T10:53:44.464Z,1002.6
2017-04-24T10:54:46.282Z,1002.7
2017-04-24T10:55:48.089Z,1002.7
2017-04-24T10:56:49.897Z,1002.5
2017-04-24T10:57:52.325Z,1002.7
2017-04-24T10:58:54.169Z,1002.5
2017-04-24T10:59:55.987Z,1002.5
2017-04-24T11:00:58.145Z,1002.5
2017-04-24T11:02:00.291Z,1002.4
2017-04-24T11:03:02.146Z,1002.4
2017-04-24T11:04:03.960Z,1002.5
2017-04-24T11:05:06.119Z,1002.4
2017-04-24T11:06:07.930Z,1002.5
2017-04-24T11:07:09.758Z,1002.6
2017-04-24T11:08:11.575Z,1002.4
2017-04-24T11:09:13.741Z,1002.5
2017-04-24T11:10:15.892Z,1002.4
2017-04-24T11:11:17.733Z,1002.3
2017-04-24T11:12:19.887Z,1002.4
2017-04-24T11:13:21.715Z,1002.5
2017-04-24T11:14:23.876Z,1002.4
2017-04-24T11:15:25.697Z,1002.4
2017-04-24T11:16:27.795Z,1002.4
2017-04-24T11:17:29.803Z,1002.3
2017-04-24T11:18:31.656Z,1002.4
2017-04-24T11:19:33.544Z,1002.3
2017-04-24T11:20:35.687Z,1002.3
2017-04-24T11:21:37.502Z,1002.3
2017-04-24T11:22:39.311Z,1002.2
2017-04-24T11:23:41.121Z,1002.3
2017-04-24T11:24:42.928Z,1002.2
2017-04-24T11:25:44.741Z,1002.2
2017-04-24T11:26:47.113Z,1002.3
2017-04-24T11:27:48.922Z,1002.3
2017-04-24T11:28:51.629Z,1002.3
2017-04-24T11:29:53.480Z,1002.3
2017-04-24T11:30:55.529Z,1002.1
2017-04-24T11:31:57.671Z,1002.3
2017-04-24T11:32:59.758Z,1002.3
2017-04-24T11:34:01.607Z,1002.2
2017-04-24T11:35:03.471Z,1002.3
2017-04-24T11:36:05.336Z,1002.2
2017-04-24T11:37:07.135Z,1002.2
2017-04-24T11:38:08.963Z,1002.2
2017-04-24T11:39:11.118Z,1002.2
2017-04-24T11:40:12.953Z,1002.1
2017-04-24T11:41:14.769Z,1002.1
2017-04-24T11:42:16.913Z,1002.1
2017-04-24T11:43:18.749Z,1002.1
2017-04-24T11:44:20.564Z,1002.1
2017-04-24T11:45:22.476Z,1001.9
2017-04-24T11:46:24.333Z,1002.1
2017-04-24T11:47:26.138Z,1002
2017-04-24T11:48:27.952Z,1002.3
2017-04-24T11:49:30.096Z,1002.1
2017-04-24T11:50:31.916Z,1002.2
2017-04-24T11:51:33.726Z,1002.1
2017-04-24T11:52:35.740Z,1002.3
2017-04-24T11:53:38.088Z,1002.2
2017-04-24T11:54:39.894Z,1002.2
2017-04-24T11:55:41.701Z,1002.3
2017-04-24T11:56:44.451Z,1002.3
2017-04-24T11:57:46.626Z,1002.1
2017-04-24T11:58:49.102Z,1002.2
2017-04-24T11:59:50.908Z,1002.1
2017-04-24T12:00:52.997Z,1002
2017-04-24T12:01:54.849Z,1002.2
2017-04-24T12:02:56.992Z,1002.1
2017-04-24T12:03:58.845Z,1002.1
2017-04-24T12:05:00.992Z,1002.1
2017-04-24T12:06:03.774Z,1002.1
2017-04-24T12:07:05.920Z,1002
2017-04-24T12:08:07.934Z,1002
2017-04-24T12:09:10.612Z,1002.1
2017-04-24T12:10:12.474Z,1002.1
2017-04-24T12:11:14.569Z,1002.1
2017-04-24T12:12:17.116Z,1002
2017-04-24T12:13:19.138Z,1001.9
2017-04-24T12:14:20.982Z,1001.9
2017-04-24T12:15:23.126Z,1001.9
2017-04-24T12:16:24.968Z,1001.9
2017-04-24T12:17:26.784Z,1001.9
2017-04-24T12:18:28.595Z,1001.9
2017-04-24T12:19:30.428Z,1001.9
2017-04-24T12:20:32.320Z,1001.9
2017-04-24T12:21:34.515Z,1001.9
2017-04-24T12:22:36.367Z,1001.9
2017-04-24T12:23:38.173Z,1001.9
2017-04-24T12:24:39.981Z,1001.8
2017-04-24T12:25:41.785Z,1001.8
2017-04-24T12:26:43.598Z,1001.9
2017-04-24T12:27:45.492Z,1001.7
2017-04-24T12:28:47.390Z,1001.9
2017-04-24T12:29:49.546Z,1001.8
2017-04-24T12:30:51.348Z,1001.8
2017-04-24T12:31:53.159Z,1001.7
2017-04-24T12:32:55.657Z,1001.8
2017-04-24T12:33:57.504Z,1001.8
2017-04-24T12:34:59.350Z,1001.7
2017-04-24T12:36:01.156Z,1001.9
2017-04-24T12:37:02.968Z,1001.7
2017-04-24T12:38:05.385Z,1001.6
2017-04-24T12:39:07.813Z,1001.8
2017-04-24T12:40:09.662Z,1001.7
2017-04-24T12:41:11.471Z,1001.7
2017-04-24T12:42:13.321Z,1001.5
2017-04-24T12:43:15.219Z,1001.6
2017-04-24T12:44:17.034Z,1001.6
2017-04-24T12:45:18.840Z,1001.7
2017-04-24T12:46:20.646Z,1001.7
2017-04-24T12:47:22.458Z,1001.6
2017-04-24T12:48:24.265Z,1001.5
2017-04-24T12:49:26.089Z,1001.7
2017-04-24T12:50:28.283Z,1001.5
2017-04-24T12:51:30.172Z,1001.4
2017-04-24T12:52:31.981Z,1001.4
2017-04-24T12:53:33.808Z,1001.5
2017-04-24T12:54:35.617Z,1001.5
2017-04-24T12:55:37.417Z,1001.4
2017-04-24T12:56:39.232Z,1001.4
2017-04-24T12:57:41.038Z,1001.4